sensor_id;sensor_type;location;lat;lon;timestamp;P1;durP1;ratioP1;P2;durP2;ratioP2
2558;SDS011;1289;53.488;10.006;2024-01-11T00:01:09;32.43;;;21.47;;
2558;SDS011;1289;53.488;10.006;2024-01-11T00:03:37;29.65;;;21.10;;
2558;SDS011;1289;53.488;10.006;2024-01-11T00:06:04;31.73;;;22.50;;
2558;SDS011;1289;53.488;10.006;2024-01-11T00:08:31;28.85;;;21.83;;
2558;SDS011;1289;53.488;10.006;2024-01-11T00:10:58;31.02;;;22.30;;
2558;SDS011;1289;53.488;10.006;2024-01-11T00:13:24;36.87;;;21.23;;
2558;SDS011;1289;53.488;10.006;2024-01-11T00:15:51;35.57;;;23.13;;
2558;SDS011;1289;53.488;10.006;2024-01-11T00:18:18;31.73;;;22.13;;
2558;SDS011;1289;53.488;10.006;2024-01-11T00:20:46;38.10;;;24.27;;
2558;SDS011;1289;53.488;10.006;2024-01-11T00:23:13;31.55;;;21.50;;
2558;SDS011;1289;53.488;10.006;2024-01-11T00:25:39;31.27;;;22.02;;
2558;SDS011;1289;53.488;10.006;2024-01-11T00:28:06;31.50;;;21.55;;
2558;SDS011;1289;53.488;10.006;2024-01-11T00:30:32;31.77;;;21.37;;
2558;SDS011;1289;53.488;10.006;2024-01-11T00:32:59;32.92;;;20.73;;
2558;SDS011;1289;53.488;10.006;2024-01-11T00:35:25;31.87;;;19.33;;
2558;SDS011;1289;53.488;10.006;2024-01-11T00:37:53;31.77;;;21.30;;
2558;SDS011;1289;53.488;10.006;2024-01-11T00:40:20;33.50;;;21.65;;
2558;SDS011;1289;53.488;10.006;2024-01-11T00:42:47;32.85;;;22.35;;
2558;SDS011;1289;53.488;10.006;2024-01-11T00:45:13;30.25;;;21.45;;
2558;SDS011;1289;53.488;10.006;2024-01-11T00:47:40;39.63;;;22.95;;
2558;SDS011;1289;53.488;10.006;2024-01-11T00:50:07;30.77;;;21.53;;
2558;SDS011;1289;53.488;10.006;2024-01-11T00:52:34;34.93;;;22.23;;
2558;SDS011;1289;53.488;10.006;2024-01-11T00:55:02;32.83;;;21.37;;
2558;SDS011;1289;53.488;10.006;2024-01-11T00:57:30;37.80;;;24.00;;
2558;SDS011;1289;53.488;10.006;2024-01-11T00:59:56;33.87;;;20.50;;
2558;SDS011;1289;53.488;10.006;2024-01-11T01:02:23;32.83;;;23.85;;
2558;SDS011;1289;53.488;10.006;2024-01-11T01:04:49;34.13;;;24.10;;
2558;SDS011;1289;53.488;10.006;2024-01-11T01:07:16;36.30;;;26.37;;
2558;SDS011;1289;53.488;10.006;2024-01-11T01:09:43;38.53;;;23.88;;
2558;SDS011;1289;53.488;10.006;2024-01-11T01:12:11;40.70;;;23.95;;
2558;SDS011;1289;53.488;10.006;2024-01-11T01:14:38;38.47;;;26.10;;
2558;SDS011;1289;53.488;10.006;2024-01-11T01:17:04;33.53;;;22.13;;
2558;SDS011;1289;53.488;10.006;2024-01-11T01:19:31;34.37;;;23.37;;
2558;SDS011;1289;53.488;10.006;2024-01-11T01:21:58;37.07;;;23.40;;
2558;SDS011;1289;53.488;10.006;2024-01-11T01:24:25;39.70;;;23.70;;
2558;SDS011;1289;53.488;10.006;2024-01-11T01:26:51;34.63;;;22.38;;
2558;SDS011;1289;53.488;10.006;2024-01-11T01:29:19;39.60;;;21.77;;
2558;SDS011;1289;53.488;10.006;2024-01-11T01:31:46;30.73;;;20.17;;
2558;SDS011;1289;53.488;10.006;2024-01-11T01:34:12;31.13;;;20.43;;
2558;SDS011;1289;53.488;10.006;2024-01-11T01:36:40;32.50;;;19.05;;
2558;SDS011;1289;53.488;10.006;2024-01-11T01:39:06;29.80;;;19.33;;
2558;SDS011;1289;53.488;10.006;2024-01-11T01:41:33;32.47;;;20.20;;
2558;SDS011;1289;53.488;10.006;2024-01-11T01:44:00;31.67;;;19.27;;
2558;SDS011;1289;53.488;10.006;2024-01-11T01:46:28;31.30;;;19.42;;
2558;SDS011;1289;53.488;10.006;2024-01-11T01:48:55;32.47;;;20.10;;
2558;SDS011;1289;53.488;10.006;2024-01-11T01:51:23;32.30;;;19.75;;
2558;SDS011;1289;53.488;10.006;2024-01-11T01:53:51;32.80;;;20.25;;
2558;SDS011;1289;53.488;10.006;2024-01-11T01:56:19;30.30;;;17.70;;
2558;SDS011;1289;53.488;10.006;2024-01-11T01:58:46;28.35;;;18.42;;
2558;SDS011;1289;53.488;10.006;2024-01-11T02:01:12;33.53;;;18.17;;
2558;SDS011;1289;53.488;10.006;2024-01-11T02:03:41;31.10;;;19.08;;
2558;SDS011;1289;53.488;10.006;2024-01-11T02:06:09;34.72;;;20.00;;
2558;SDS011;1289;53.488;10.006;2024-01-11T02:08:36;30.92;;;17.60;;
2558;SDS011;1289;53.488;10.006;2024-01-11T02:11:02;32.13;;;20.33;;
2558;SDS011;1289;53.488;10.006;2024-01-11T02:13:29;30.17;;;19.23;;
2558;SDS011;1289;53.488;10.006;2024-01-11T02:15:56;35.20;;;19.37;;
2558;SDS011;1289;53.488;10.006;2024-01-11T02:18:22;30.30;;;18.63;;
2558;SDS011;1289;53.488;10.006;2024-01-11T02:20:50;35.55;;;19.55;;
2558;SDS011;1289;53.488;10.006;2024-01-11T02:23:17;28.10;;;16.45;;
2558;SDS011;1289;53.488;10.006;2024-01-11T02:25:47;27.33;;;17.98;;
2558;SDS011;1289;53.488;10.006;2024-01-11T02:28:13;32.63;;;20.30;;
2558;SDS011;1289;53.488;10.006;2024-01-11T02:30:40;29.17;;;18.77;;
2558;SDS011;1289;53.488;10.006;2024-01-11T02:33:07;32.78;;;19.45;;
2558;SDS011;1289;53.488;10.006;2024-01-11T02:35:34;29.60;;;17.92;;
2558;SDS011;1289;53.488;10.006;2024-01-11T02:38:02;26.60;;;16.38;;
2558;SDS011;1289;53.488;10.006;2024-01-11T02:40:29;28.60;;;17.10;;
2558;SDS011;1289;53.488;10.006;2024-01-11T02:42:57;27.50;;;19.00;;
2558;SDS011;1289;53.488;10.006;2024-01-11T02:45:23;27.03;;;16.57;;
2558;SDS011;1289;53.488;10.006;2024-01-11T02:47:50;32.80;;;18.93;;
2558;SDS011;1289;53.488;10.006;2024-01-11T02:50:17;25.10;;;16.85;;
2558;SDS011;1289;53.488;10.006;2024-01-11T02:52:43;27.13;;;17.30;;
2558;SDS011;1289;53.488;10.006;2024-01-11T02:55:11;33.17;;;20.07;;
2558;SDS011;1289;53.488;10.006;2024-01-11T02:57:37;30.80;;;18.13;;
2558;SDS011;1289;53.488;10.006;2024-01-11T03:00:06;33.50;;;19.30;;
2558;SDS011;1289;53.488;10.006;2024-01-11T03:02:33;27.35;;;18.45;;
2558;SDS011;1289;53.488;10.006;2024-01-11T03:05:00;24.27;;;16.93;;
2558;SDS011;1289;53.488;10.006;2024-01-11T03:07:26;32.10;;;19.27;;
2558;SDS011;1289;53.488;10.006;2024-01-11T03:09:53;27.70;;;20.40;;
2558;SDS011;1289;53.488;10.006;2024-01-11T03:12:20;32.33;;;19.97;;
2558;SDS011;1289;53.488;10.006;2024-01-11T03:14:47;30.90;;;17.77;;
2558;SDS011;1289;53.488;10.006;2024-01-11T03:17:15;28.23;;;17.17;;
2558;SDS011;1289;53.488;10.006;2024-01-11T03:19:41;37.30;;;18.90;;
2558;SDS011;1289;53.488;10.006;2024-01-11T03:22:08;29.30;;;16.07;;
2558;SDS011;1289;53.488;10.006;2024-01-11T03:24:37;31.03;;;18.63;;
2558;SDS011;1289;53.488;10.006;2024-01-11T03:27:04;30.27;;;17.87;;
2558;SDS011;1289;53.488;10.006;2024-01-11T03:29:30;31.20;;;17.13;;
2558;SDS011;1289;53.488;10.006;2024-01-11T03:31:57;35.90;;;18.70;;
2558;SDS011;1289;53.488;10.006;2024-01-11T03:34:25;35.80;;;20.63;;
2558;SDS011;1289;53.488;10.006;2024-01-11T03:36:52;31.00;;;17.17;;
2558;SDS011;1289;53.488;10.006;2024-01-11T03:39:18;32.90;;;19.10;;
2558;SDS011;1289;53.488;10.006;2024-01-11T03:41:45;32.77;;;19.90;;
2558;SDS011;1289;53.488;10.006;2024-01-11T03:44:12;39.23;;;21.13;;
2558;SDS011;1289;53.488;10.006;2024-01-11T03:46:39;36.17;;;20.03;;
2558;SDS011;1289;53.488;10.006;2024-01-11T03:49:05;35.57;;;20.17;;
2558;SDS011;1289;53.488;10.006;2024-01-11T03:51:34;48.23;;;21.33;;
2558;SDS011;1289;53.488;10.006;2024-01-11T03:54:00;38.93;;;21.77;;
2558;SDS011;1289;53.488;10.006;2024-01-11T03:56:27;44.30;;;21.43;;
2558;SDS011;1289;53.488;10.006;2024-01-11T03:58:54;40.00;;;22.40;;
2558;SDS011;1289;53.488;10.006;2024-01-11T04:01:20;36.83;;;20.10;;
2558;SDS011;1289;53.488;10.006;2024-01-11T04:03:47;37.90;;;21.33;;
2558;SDS011;1289;53.488;10.006;2024-01-11T04:06:18;40.73;;;21.47;;
2558;SDS011;1289;53.488;10.006;2024-01-11T04:08:48;43.83;;;23.37;;
2558;SDS011;1289;53.488;10.006;2024-01-11T04:11:15;44.40;;;25.00;;
2558;SDS011;1289;53.488;10.006;2024-01-11T04:13:41;31.63;;;19.73;;
2558;SDS011;1289;53.488;10.006;2024-01-11T04:16:08;39.63;;;23.10;;
2558;SDS011;1289;53.488;10.006;2024-01-11T04:18:35;38.47;;;22.10;;
2558;SDS011;1289;53.488;10.006;2024-01-11T04:21:02;45.47;;;23.50;;
2558;SDS011;1289;53.488;10.006;2024-01-11T04:23:29;36.23;;;20.90;;
2558;SDS011;1289;53.488;10.006;2024-01-11T04:25:56;40.80;;;22.73;;
2558;SDS011;1289;53.488;10.006;2024-01-11T04:28:23;36.90;;;22.83;;
2558;SDS011;1289;53.488;10.006;2024-01-11T04:30:50;39.55;;;22.13;;
2558;SDS011;1289;53.488;10.006;2024-01-11T04:33:16;37.65;;;21.40;;
2558;SDS011;1289;53.488;10.006;2024-01-11T04:35:43;41.13;;;23.07;;
2558;SDS011;1289;53.488;10.006;2024-01-11T04:38:09;43.03;;;24.40;;
2558;SDS011;1289;53.488;10.006;2024-01-11T04:40:36;37.37;;;21.90;;
2558;SDS011;1289;53.488;10.006;2024-01-11T04:43:04;39.30;;;23.13;;
2558;SDS011;1289;53.488;10.006;2024-01-11T04:45:32;48.73;;;25.37;;
2558;SDS011;1289;53.488;10.006;2024-01-11T04:47:59;49.50;;;26.30;;
2558;SDS011;1289;53.488;10.006;2024-01-11T04:50:26;42.70;;;24.13;;
2558;SDS011;1289;53.488;10.006;2024-01-11T04:52:52;47.83;;;22.63;;
2558;SDS011;1289;53.488;10.006;2024-01-11T04:55:19;49.53;;;23.93;;
2558;SDS011;1289;53.488;10.006;2024-01-11T04:57:46;39.57;;;23.17;;
2558;SDS011;1289;53.488;10.006;2024-01-11T05:00:14;45.43;;;23.30;;
2558;SDS011;1289;53.488;10.006;2024-01-11T05:02:41;42.03;;;24.80;;
2558;SDS011;1289;53.488;10.006;2024-01-11T05:05:08;42.97;;;23.33;;
2558;SDS011;1289;53.488;10.006;2024-01-11T05:07:34;38.00;;;22.70;;
2558;SDS011;1289;53.488;10.006;2024-01-11T05:10:01;37.47;;;21.03;;
2558;SDS011;1289;53.488;10.006;2024-01-11T05:12:27;39.93;;;23.77;;
2558;SDS011;1289;53.488;10.006;2024-01-11T05:14:54;40.07;;;24.23;;
2558;SDS011;1289;53.488;10.006;2024-01-11T05:17:22;47.60;;;25.70;;
2558;SDS011;1289;53.488;10.006;2024-01-11T05:19:49;49.30;;;25.10;;
2558;SDS011;1289;53.488;10.006;2024-01-11T05:22:15;49.43;;;25.77;;
2558;SDS011;1289;53.488;10.006;2024-01-11T05:24:42;46.10;;;26.40;;
2558;SDS011;1289;53.488;10.006;2024-01-11T05:27:09;46.10;;;25.83;;
2558;SDS011;1289;53.488;10.006;2024-01-11T05:29:36;45.13;;;25.20;;
2558;SDS011;1289;53.488;10.006;2024-01-11T05:32:03;45.50;;;24.87;;
2558;SDS011;1289;53.488;10.006;2024-01-11T05:34:31;45.50;;;24.63;;
2558;SDS011;1289;53.488;10.006;2024-01-11T05:36:58;46.23;;;26.40;;
2558;SDS011;1289;53.488;10.006;2024-01-11T05:39:24;42.43;;;26.60;;
2558;SDS011;1289;53.488;10.006;2024-01-11T05:41:51;41.10;;;22.57;;
2558;SDS011;1289;53.488;10.006;2024-01-11T05:44:18;48.27;;;23.10;;
2558;SDS011;1289;53.488;10.006;2024-01-11T05:46:45;41.67;;;23.57;;
2558;SDS011;1289;53.488;10.006;2024-01-11T05:49:11;41.87;;;22.20;;
2558;SDS011;1289;53.488;10.006;2024-01-11T05:51:39;39.23;;;21.53;;
2558;SDS011;1289;53.488;10.006;2024-01-11T05:54:06;39.03;;;21.97;;
2558;SDS011;1289;53.488;10.006;2024-01-11T05:56:32;36.57;;;22.10;;
2558;SDS011;1289;53.488;10.006;2024-01-11T05:58:59;37.07;;;21.93;;
2558;SDS011;1289;53.488;10.006;2024-01-11T06:01:25;31.37;;;18.83;;
2558;SDS011;1289;53.488;10.006;2024-01-11T06:03:52;32.93;;;18.17;;
2558;SDS011;1289;53.488;10.006;2024-01-11T06:06:20;26.90;;;17.13;;
2558;SDS011;1289;53.488;10.006;2024-01-11T06:08:48;35.57;;;17.40;;
2558;SDS011;1289;53.488;10.006;2024-01-11T06:11:14;27.07;;;18.10;;
2558;SDS011;1289;53.488;10.006;2024-01-11T06:13:43;23.57;;;15.87;;
2558;SDS011;1289;53.488;10.006;2024-01-11T06:16:09;28.37;;;16.00;;
2558;SDS011;1289;53.488;10.006;2024-01-11T06:18:36;27.07;;;16.00;;
2558;SDS011;1289;53.488;10.006;2024-01-11T06:21:03;25.50;;;15.07;;
2558;SDS011;1289;53.488;10.006;2024-01-11T06:23:29;24.77;;;15.20;;
2558;SDS011;1289;53.488;10.006;2024-01-11T06:25:57;26.80;;;13.80;;
2558;SDS011;1289;53.488;10.006;2024-01-11T06:28:24;25.53;;;14.70;;
2558;SDS011;1289;53.488;10.006;2024-01-11T06:30:51;23.10;;;13.80;;
2558;SDS011;1289;53.488;10.006;2024-01-11T06:33:18;18.37;;;11.20;;
2558;SDS011;1289;53.488;10.006;2024-01-11T06:35:45;18.83;;;11.57;;
2558;SDS011;1289;53.488;10.006;2024-01-11T06:38:12;17.70;;;12.07;;
2558;SDS011;1289;53.488;10.006;2024-01-11T06:40:38;17.70;;;10.93;;
2558;SDS011;1289;53.488;10.006;2024-01-11T06:43:07;12.63;;;9.83;;
2558;SDS011;1289;53.488;10.006;2024-01-11T06:45:33;18.80;;;11.20;;
2558;SDS011;1289;53.488;10.006;2024-01-11T06:48:00;18.90;;;11.77;;
2558;SDS011;1289;53.488;10.006;2024-01-11T06:50:26;19.57;;;10.20;;
2558;SDS011;1289;53.488;10.006;2024-01-11T06:52:53;16.80;;;11.33;;
2558;SDS011;1289;53.488;10.006;2024-01-11T06:55:20;17.70;;;10.93;;
2558;SDS011;1289;53.488;10.006;2024-01-11T06:57:46;15.63;;;10.87;;
2558;SDS011;1289;53.488;10.006;2024-01-11T07:00:15;14.93;;;10.67;;
2558;SDS011;1289;53.488;10.006;2024-01-11T07:02:42;12.23;;;8.77;;
2558;SDS011;1289;53.488;10.006;2024-01-11T07:05:09;18.20;;;10.70;;
2558;SDS011;1289;53.488;10.006;2024-01-11T07:07:35;12.17;;;8.17;;
2558;SDS011;1289;53.488;10.006;2024-01-11T07:10:02;10.73;;;9.33;;
2558;SDS011;1289;53.488;10.006;2024-01-11T07:12:30;14.70;;;8.53;;
2558;SDS011;1289;53.488;10.006;2024-01-11T07:14:57;17.50;;;9.30;;
2558;SDS011;1289;53.488;10.006;2024-01-11T07:17:25;12.97;;;9.50;;
2558;SDS011;1289;53.488;10.006;2024-01-11T07:19:51;13.50;;;9.30;;
2558;SDS011;1289;53.488;10.006;2024-01-11T07:22:18;20.10;;;9.17;;
2558;SDS011;1289;53.488;10.006;2024-01-11T07:24:44;13.53;;;9.90;;
2558;SDS011;1289;53.488;10.006;2024-01-11T07:27:11;15.33;;;8.40;;
2558;SDS011;1289;53.488;10.006;2024-01-11T07:29:38;15.90;;;9.73;;
2558;SDS011;1289;53.488;10.006;2024-01-11T07:32:05;15.47;;;8.70;;
2558;SDS011;1289;53.488;10.006;2024-01-11T07:34:33;18.27;;;9.70;;
2558;SDS011;1289;53.488;10.006;2024-01-11T07:36:59;18.40;;;10.67;;
2558;SDS011;1289;53.488;10.006;2024-01-11T07:39:26;19.20;;;9.93;;
2558;SDS011;1289;53.488;10.006;2024-01-11T07:41:52;16.30;;;10.37;;
2558;SDS011;1289;53.488;10.006;2024-01-11T07:44:19;18.40;;;10.43;;
2558;SDS011;1289;53.488;10.006;2024-01-11T07:46:46;20.33;;;10.80;;
2558;SDS011;1289;53.488;10.006;2024-01-11T07:49:13;21.83;;;11.07;;
2558;SDS011;1289;53.488;10.006;2024-01-11T07:51:41;23.90;;;11.30;;
2558;SDS011;1289;53.488;10.006;2024-01-11T07:54:07;30.40;;;11.73;;
2558;SDS011;1289;53.488;10.006;2024-01-11T07:56:34;21.90;;;11.53;;
2558;SDS011;1289;53.488;10.006;2024-01-11T07:59:01;23.70;;;12.23;;
2558;SDS011;1289;53.488;10.006;2024-01-11T08:01:27;21.10;;;11.77;;
2558;SDS011;1289;53.488;10.006;2024-01-11T08:03:54;21.30;;;10.90;;
2558;SDS011;1289;53.488;10.006;2024-01-11T08:06:21;24.07;;;11.90;;
2558;SDS011;1289;53.488;10.006;2024-01-11T08:08:48;23.77;;;12.80;;
2558;SDS011;1289;53.488;10.006;2024-01-11T08:11:16;17.20;;;10.27;;
2558;SDS011;1289;53.488;10.006;2024-01-11T08:13:43;19.30;;;10.20;;
2558;SDS011;1289;53.488;10.006;2024-01-11T08:16:14;21.27;;;11.47;;
2558;SDS011;1289;53.488;10.006;2024-01-11T08:18:41;21.37;;;11.87;;
2558;SDS011;1289;53.488;10.006;2024-01-11T08:21:09;20.73;;;11.23;;
2558;SDS011;1289;53.488;10.006;2024-01-11T08:23:36;24.50;;;13.25;;
2558;SDS011;1289;53.488;10.006;2024-01-11T08:26:06;25.60;;;13.10;;
2558;SDS011;1289;53.488;10.006;2024-01-11T08:28:33;26.43;;;12.20;;
2558;SDS011;1289;53.488;10.006;2024-01-11T08:31:00;23.40;;;12.20;;
2558;SDS011;1289;53.488;10.006;2024-01-11T08:33:29;18.53;;;12.00;;
2558;SDS011;1289;53.488;10.006;2024-01-11T08:35:56;25.43;;;13.83;;
2558;SDS011;1289;53.488;10.006;2024-01-11T08:38:23;25.60;;;12.37;;
2558;SDS011;1289;53.488;10.006;2024-01-11T08:40:50;22.70;;;12.97;;
2558;SDS011;1289;53.488;10.006;2024-01-11T08:43:18;21.33;;;11.97;;
2558;SDS011;1289;53.488;10.006;2024-01-11T08:45:44;20.73;;;11.63;;
2558;SDS011;1289;53.488;10.006;2024-01-11T08:48:11;24.97;;;13.30;;
2558;SDS011;1289;53.488;10.006;2024-01-11T08:50:38;24.90;;;12.77;;
2558;SDS011;1289;53.488;10.006;2024-01-11T08:53:05;26.00;;;12.77;;
2558;SDS011;1289;53.488;10.006;2024-01-11T08:55:31;22.07;;;12.07;;
2558;SDS011;1289;53.488;10.006;2024-01-11T08:57:58;23.90;;;13.07;;
2558;SDS011;1289;53.488;10.006;2024-01-11T09:00:27;26.73;;;14.87;;
2558;SDS011;1289;53.488;10.006;2024-01-11T09:02:53;24.77;;;13.90;;
2558;SDS011;1289;53.488;10.006;2024-01-11T09:05:20;23.40;;;13.50;;
2558;SDS011;1289;53.488;10.006;2024-01-11T09:07:47;28.67;;;13.80;;
2558;SDS011;1289;53.488;10.006;2024-01-11T09:10:13;25.93;;;12.50;;
2558;SDS011;1289;53.488;10.006;2024-01-11T09:12:41;30.23;;;15.60;;
2558;SDS011;1289;53.488;10.006;2024-01-11T09:15:14;30.60;;;15.87;;
2558;SDS011;1289;53.488;10.006;2024-01-11T09:17:42;26.37;;;14.00;;
2558;SDS011;1289;53.488;10.006;2024-01-11T09:20:09;22.67;;;12.57;;
2558;SDS011;1289;53.488;10.006;2024-01-11T09:22:39;34.43;;;13.67;;
2558;SDS011;1289;53.488;10.006;2024-01-11T09:25:06;23.90;;;12.20;;
2558;SDS011;1289;53.488;10.006;2024-01-11T09:27:33;26.80;;;12.33;;
2558;SDS011;1289;53.488;10.006;2024-01-11T09:30:00;22.63;;;12.00;;
2558;SDS011;1289;53.488;10.006;2024-01-11T09:32:27;22.30;;;10.80;;
2558;SDS011;1289;53.488;10.006;2024-01-11T09:34:55;21.03;;;11.57;;
2558;SDS011;1289;53.488;10.006;2024-01-11T09:37:22;25.10;;;11.70;;
2558;SDS011;1289;53.488;10.006;2024-01-11T09:39:49;19.40;;;11.37;;
2558;SDS011;1289;53.488;10.006;2024-01-11T09:42:16;17.57;;;11.10;;
2558;SDS011;1289;53.488;10.006;2024-01-11T09:44:44;16.47;;;10.17;;
2558;SDS011;1289;53.488;10.006;2024-01-11T09:47:11;18.70;;;10.93;;
2558;SDS011;1289;53.488;10.006;2024-01-11T09:49:38;15.83;;;8.20;;
2558;SDS011;1289;53.488;10.006;2024-01-11T09:52:06;13.37;;;9.70;;
2558;SDS011;1289;53.488;10.006;2024-01-11T09:54:36;18.90;;;8.80;;
2558;SDS011;1289;53.488;10.006;2024-01-11T09:57:02;16.20;;;10.70;;
2558;SDS011;1289;53.488;10.006;2024-01-11T09:59:31;17.20;;;9.77;;
2558;SDS011;1289;53.488;10.006;2024-01-11T10:01:59;14.30;;;9.50;;
2558;SDS011;1289;53.488;10.006;2024-01-11T10:04:26;16.57;;;9.67;;
2558;SDS011;1289;53.488;10.006;2024-01-11T10:06:53;15.73;;;9.97;;
2558;SDS011;1289;53.488;10.006;2024-01-11T10:09:21;18.73;;;10.70;;
2558;SDS011;1289;53.488;10.006;2024-01-11T10:11:48;19.37;;;11.93;;
2558;SDS011;1289;53.488;10.006;2024-01-11T10:14:16;18.30;;;12.40;;
2558;SDS011;1289;53.488;10.006;2024-01-11T10:16:43;19.60;;;12.50;;
2558;SDS011;1289;53.488;10.006;2024-01-11T10:19:10;22.13;;;12.40;;
2558;SDS011;1289;53.488;10.006;2024-01-11T10:21:38;24.87;;;12.30;;
2558;SDS011;1289;53.488;10.006;2024-01-11T10:24:05;22.00;;;12.90;;
2558;SDS011;1289;53.488;10.006;2024-01-11T10:26:33;26.80;;;14.40;;
2558;SDS011;1289;53.488;10.006;2024-01-11T10:29:00;18.33;;;12.67;;
2558;SDS011;1289;53.488;10.006;2024-01-11T10:31:28;26.97;;;14.30;;
2558;SDS011;1289;53.488;10.006;2024-01-11T10:33:55;27.43;;;14.60;;
2558;SDS011;1289;53.488;10.006;2024-01-11T10:36:22;26.40;;;16.30;;
2558;SDS011;1289;53.488;10.006;2024-01-11T10:38:49;25.40;;;15.77;;
2558;SDS011;1289;53.488;10.006;2024-01-11T10:41:17;31.93;;;16.87;;
2558;SDS011;1289;53.488;10.006;2024-01-11T10:43:46;25.17;;;15.03;;
2558;SDS011;1289;53.488;10.006;2024-01-11T10:46:14;25.87;;;14.60;;
2558;SDS011;1289;53.488;10.006;2024-01-11T10:48:42;25.20;;;15.50;;
2558;SDS011;1289;53.488;10.006;2024-01-11T10:51:10;28.40;;;15.90;;
2558;SDS011;1289;53.488;10.006;2024-01-11T10:53:41;27.60;;;15.17;;
2558;SDS011;1289;53.488;10.006;2024-01-11T10:56:09;26.37;;;17.30;;
2558;SDS011;1289;53.488;10.006;2024-01-11T10:58:37;27.07;;;15.37;;
2558;SDS011;1289;53.488;10.006;2024-01-11T11:01:07;28.90;;;16.63;;
2558;SDS011;1289;53.488;10.006;2024-01-11T11:03:36;28.33;;;17.10;;
2558;SDS011;1289;53.488;10.006;2024-01-11T11:06:04;36.00;;;18.57;;
2558;SDS011;1289;53.488;10.006;2024-01-11T11:08:31;31.60;;;17.03;;
2558;SDS011;1289;53.488;10.006;2024-01-11T11:10:59;38.83;;;19.23;;
2558;SDS011;1289;53.488;10.006;2024-01-11T11:13:26;34.57;;;17.63;;
2558;SDS011;1289;53.488;10.006;2024-01-11T11:15:53;33.13;;;17.97;;
2558;SDS011;1289;53.488;10.006;2024-01-11T11:18:24;29.37;;;17.90;;
2558;SDS011;1289;53.488;10.006;2024-01-11T11:20:51;31.97;;;19.93;;
2558;SDS011;1289;53.488;10.006;2024-01-11T11:23:19;35.57;;;18.03;;
2558;SDS011;1289;53.488;10.006;2024-01-11T11:25:46;33.43;;;19.60;;
2558;SDS011;1289;53.488;10.006;2024-01-11T11:28:14;38.33;;;18.87;;
2558;SDS011;1289;53.488;10.006;2024-01-11T11:30:42;35.53;;;19.30;;
2558;SDS011;1289;53.488;10.006;2024-01-11T11:33:10;36.03;;;20.80;;
2558;SDS011;1289;53.488;10.006;2024-01-11T11:35:38;35.70;;;19.30;;
2558;SDS011;1289;53.488;10.006;2024-01-11T11:38:06;35.10;;;20.60;;
2558;SDS011;1289;53.488;10.006;2024-01-11T11:40:33;31.17;;;19.70;;
2558;SDS011;1289;53.488;10.006;2024-01-11T11:43:04;40.57;;;20.30;;
2558;SDS011;1289;53.488;10.006;2024-01-11T11:45:31;35.03;;;19.63;;
2558;SDS011;1289;53.488;10.006;2024-01-11T11:47:57;40.80;;;21.30;;
2558;SDS011;1289;53.488;10.006;2024-01-11T11:50:23;29.20;;;17.43;;
2558;SDS011;1289;53.488;10.006;2024-01-11T11:52:54;37.83;;;18.10;;
2558;SDS011;1289;53.488;10.006;2024-01-11T11:55:22;32.60;;;18.30;;
2558;SDS011;1289;53.488;10.006;2024-01-11T11:57:50;36.23;;;18.97;;
2558;SDS011;1289;53.488;10.006;2024-01-11T12:00:17;32.83;;;18.83;;
2558;SDS011;1289;53.488;10.006;2024-01-11T12:02:43;29.43;;;16.80;;
2558;SDS011;1289;53.488;10.006;2024-01-11T12:05:10;35.40;;;17.80;;
2558;SDS011;1289;53.488;10.006;2024-01-11T12:07:37;37.57;;;19.33;;
2558;SDS011;1289;53.488;10.006;2024-01-11T12:10:05;33.83;;;18.10;;
2558;SDS011;1289;53.488;10.006;2024-01-11T12:12:33;27.00;;;17.97;;
2558;SDS011;1289;53.488;10.006;2024-01-11T12:15:00;36.70;;;19.27;;
2558;SDS011;1289;53.488;10.006;2024-01-11T12:17:27;32.63;;;19.33;;
2558;SDS011;1289;53.488;10.006;2024-01-11T12:19:53;30.40;;;18.47;;
2558;SDS011;1289;53.488;10.006;2024-01-11T12:22:20;32.30;;;17.23;;
2558;SDS011;1289;53.488;10.006;2024-01-11T12:24:46;36.63;;;19.00;;
2558;SDS011;1289;53.488;10.006;2024-01-11T12:27:14;32.27;;;19.30;;
2558;SDS011;1289;53.488;10.006;2024-01-11T12:29:41;33.33;;;18.83;;
2558;SDS011;1289;53.488;10.006;2024-01-11T12:32:08;31.93;;;18.00;;
2558;SDS011;1289;53.488;10.006;2024-01-11T12:34:36;33.13;;;18.57;;
2558;SDS011;1289;53.488;10.006;2024-01-11T12:37:03;36.70;;;21.00;;
2558;SDS011;1289;53.488;10.006;2024-01-11T12:39:31;36.57;;;19.80;;
2558;SDS011;1289;53.488;10.006;2024-01-11T12:41:58;28.37;;;18.07;;
2558;SDS011;1289;53.488;10.006;2024-01-11T12:44:26;32.00;;;19.10;;
2558;SDS011;1289;53.488;10.006;2024-01-11T12:46:52;33.27;;;19.20;;
2558;SDS011;1289;53.488;10.006;2024-01-11T12:49:19;34.80;;;19.60;;
2558;SDS011;1289;53.488;10.006;2024-01-11T12:51:46;32.43;;;18.27;;
2558;SDS011;1289;53.488;10.006;2024-01-11T12:54:12;34.17;;;18.37;;
2558;SDS011;1289;53.488;10.006;2024-01-11T12:56:40;36.53;;;20.00;;
2558;SDS011;1289;53.488;10.006;2024-01-11T12:59:08;29.60;;;17.23;;
2558;SDS011;1289;53.488;10.006;2024-01-11T13:01:36;30.03;;;18.77;;
2558;SDS011;1289;53.488;10.006;2024-01-11T13:04:03;36.13;;;20.73;;
2558;SDS011;1289;53.488;10.006;2024-01-11T13:06:30;38.43;;;20.30;;
2558;SDS011;1289;53.488;10.006;2024-01-11T13:08:58;34.80;;;18.70;;
2558;SDS011;1289;53.488;10.006;2024-01-11T13:11:24;40.17;;;19.23;;
2558;SDS011;1289;53.488;10.006;2024-01-11T13:13:51;37.90;;;21.73;;
2558;SDS011;1289;53.488;10.006;2024-01-11T13:16:18;34.43;;;18.67;;
2558;SDS011;1289;53.488;10.006;2024-01-11T13:18:46;32.43;;;18.20;;
2558;SDS011;1289;53.488;10.006;2024-01-11T13:21:13;35.60;;;20.37;;
2558;SDS011;1289;53.488;10.006;2024-01-11T13:23:40;34.10;;;19.30;;
2558;SDS011;1289;53.488;10.006;2024-01-11T13:26:07;38.40;;;19.40;;
2558;SDS011;1289;53.488;10.006;2024-01-11T13:28:34;30.53;;;18.43;;
2558;SDS011;1289;53.488;10.006;2024-01-11T13:31:01;35.57;;;19.37;;
2558;SDS011;1289;53.488;10.006;2024-01-11T13:33:28;37.20;;;20.20;;
2558;SDS011;1289;53.488;10.006;2024-01-11T13:35:56;33.13;;;19.30;;
2558;SDS011;1289;53.488;10.006;2024-01-11T13:38:22;39.83;;;19.30;;
2558;SDS011;1289;53.488;10.006;2024-01-11T13:40:49;33.10;;;18.63;;
2558;SDS011;1289;53.488;10.006;2024-01-11T13:43:15;35.23;;;18.40;;
2558;SDS011;1289;53.488;10.006;2024-01-11T13:45:42;36.20;;;19.13;;
2558;SDS011;1289;53.488;10.006;2024-01-11T13:48:09;37.30;;;20.60;;
2558;SDS011;1289;53.488;10.006;2024-01-11T13:50:36;33.67;;;19.53;;
2558;SDS011;1289;53.488;10.006;2024-01-11T13:53:04;32.90;;;19.13;;
2558;SDS011;1289;53.488;10.006;2024-01-11T13:55:31;36.33;;;18.23;;
2558;SDS011;1289;53.488;10.006;2024-01-11T13:58:03;33.47;;;19.90;;
2558;SDS011;1289;53.488;10.006;2024-01-11T14:00:29;32.37;;;18.60;;
2558;SDS011;1289;53.488;10.006;2024-01-11T14:02:56;35.40;;;19.17;;
2558;SDS011;1289;53.488;10.006;2024-01-11T14:05:22;36.97;;;18.80;;
2558;SDS011;1289;53.488;10.006;2024-01-11T14:07:49;40.43;;;20.77;;
2558;SDS011;1289;53.488;10.006;2024-01-11T14:10:21;41.17;;;19.60;;
2558;SDS011;1289;53.488;10.006;2024-01-11T14:12:47;35.67;;;18.70;;
2558;SDS011;1289;53.488;10.006;2024-01-11T14:15:15;35.83;;;20.83;;
2558;SDS011;1289;53.488;10.006;2024-01-11T14:17:41;31.53;;;17.87;;
2558;SDS011;1289;53.488;10.006;2024-01-11T14:20:08;34.10;;;20.70;;
2558;SDS011;1289;53.488;10.006;2024-01-11T14:22:38;35.17;;;17.93;;
2558;SDS011;1289;53.488;10.006;2024-01-11T14:25:04;29.63;;;18.23;;
2558;SDS011;1289;53.488;10.006;2024-01-11T14:27:33;32.67;;;20.17;;
2558;SDS011;1289;53.488;10.006;2024-01-11T14:29:59;34.27;;;19.70;;
2558;SDS011;1289;53.488;10.006;2024-01-11T14:32:26;32.20;;;18.70;;
2558;SDS011;1289;53.488;10.006;2024-01-11T14:34:54;35.13;;;19.03;;